Aktualne dane pomiarowe

Uwaga, wersja testowa! Automatyczne pobieranie danych za pomocą narzędzi lub skryptów to umożliwiających jest zabronione.

Dane meteo z obszaru Polski uzyskane na podstawie depesz SYNOP pobieranych co godzinę z NWS. Najedź myszką na symbol przedstawiony w tabeli, aby uzyskać informacje co do jego znaczenia. Prosimy pamiętać, że to testowa wersja strony, która jeszcze nie jest ukończona. Stworzono również jest krótki FAQ dotyczący korzystania z tej podstrony Anomalie temperatury w chwili obecnej odniesione są do okresu referencyjnego 1951-2016. Okres ten będzie później zmieniony na 1981-2010. Kliknij ikonę aby pobrać plik CSV. Kliknij ikonę aby wygenerować mapę synoptyczną dla danego terminu.

Wybierz Datę:    

        

Kasprowy Wierch (12650)

Dane terminowe dla wybranej stacji. Kliknij datę, aby otrzymać dane z tego terminu dla wszystkich stacji.

TemperaturaZachmurzenieWiatrCiśnienieOpadyPogoda
 Data t td wb tx tn tg rh  Nt Nl Cl Cm Ch ws wd g1 g2 wx mslp ppp ch 24h 12h t ww ww w1 w2  
2019-07-20 23:00:00 11.1 10.2 10.4--- 9450.0wxwxwxwxwx8wx--8- 806.8 0.3---------
2019-07-20 22:00:00 11.2 10.1 10.4--- 9350.0wxwxwxwxwx8wx--8- 806.9 0.6---------
2019-07-20 21:00:00 10.8 10.3 10.4--- 9740.0wxwxwxwxwx8wx---- 806.7 0.5---wx---
2019-07-20 20:00:00 10.7 10.4 10.4--- 9840.0wxwxwxwxwx9wx--9- 806.5 0.3---------
2019-07-20 19:00:00 10.8 10.3 10.4--- 9740.0wxwxwxwxwx9wx--9- 806.3 0.1---------
2019-07-20 18:00:00 10.9 10.1 10.3 14.6 9.1- 9540.0wxwxwxwxwx7wx-137- 806.2 0.0- 0.212wx-w1--
2019-07-20 17:00:00 11.7 9.9 10.5--- 8940.0wxwxwx6wx--6- 806.2 0.0---------
2019-07-20 16:00:00 12.1 9.8 10.6--- 8650.0wxwxwx4wx--4- 806.2 -0.1---------
2019-07-20 15:00:00 12.7 8.4 10.0--- 7550.0wxwxwxwxwx3wx---- 806.2 -0.1---wx---
2019-07-20 14:00:00 10.5 8.1 8.9--- 8550.0wxwxwx7wx13137- 806.2 -0.2---wx---
2019-07-20 13:00:00 12.6 9.4 10.5--- 8150.0wxwxwx4wx--4- 806.3 0.2---------
2019-07-20 12:00:00 12.3 8.6 9.9--- 7850.0wxwxwxwxwx4wx-94- 806.3 0.3- 0.06------
2019-07-20 11:00:00 12.3 8.6 9.9--- 7850.0wxwxwxwxwx3wx-93- 806.4 0.6---------
2019-07-20 10:00:00 11.2 8.4 9.4--- 8350.0wxwxwxwxwx4wx-94- 806.1 0.7---------
2019-07-20 09:00:00 10.9 7.8 8.9--- 8150.0wxwxwxwxwx3wx883- 806.0 0.7---------
2019-07-20 08:00:00 10.1 7.5 8.4--- 8450.0wxwxwxwxwx4wx--4- 805.8 0.7---------
2019-07-20 07:00:00 9.6 6.5 7.6--- 8150.0wxwxwxwxwx7wx--7- 805.4 0.6---------
2019-07-20 06:00:00 9.1 5.6 6.9 9.7 6.8- 7940.0wxwxwxwxwx3wx-123- 805.3 0.7 0.3 0.312wx-w1- 5.2
2019-07-20 05:00:00 8.7 5.6 6.8--- 8140.0wxwxwxwxwx4wx---- 805.1 0.5---------
2019-07-20 04:00:00 9.0 5.9 7.1--- 8140.0wxwxwxwxwx7wx-127- 804.8 0.2---------
2019-07-20 03:00:00 8.9 6.2 7.2--- 8330.0wxwxwxwxwx7wx-127- 804.6 -0.2---wx---
2019-07-20 02:00:00 8.2 6.3 6.9--- 8820.0wxwxwx7wx-127- 804.6 -0.1---wx---
2019-07-20 01:00:00 8.3 5.9 6.8--- 8530.0wxwxwx6wx--6- 804.6 -0.1---------
2019-07-20 00:00:00 9.4 5.2 6.9--- 7530.0wx-wx7wx--7- 804.8 0.1- 0.16wx-w1--
2019-07-19 23:00:00 8.9 5.6 6.9--- 8030.0wx-wx6wx---- 804.7 0.0---------
2019-07-19 22:00:00 9.1 5.5 6.9--- 7830.0wxwxwxwx6wx--6- 804.7 0.7---------
2019-07-19 21:00:00 9.2 4.8 6.6--- 7430.0wxwxwxwx6wx--6- 804.7 0.4---wx-w1--
2019-07-19 20:00:00 9.2 5.0 6.7--- 7520.0wxwxwxwx7wx--7- 804.7 0.2---wx---
2019-07-19 19:00:00 8.1 5.0 6.2--- 8120.0wxwxwx10wx--10- 804.0 -0.4---wx-w1w2--
2019-07-19 18:00:00 7.5 5.6 6.2 14.2 7.5- 8820.0wxwxwx7wx--7- 804.3 0.2--12wx-w1--
2019-07-19 17:00:00 8.9 6.2 7.2--- 8320.0wxwxwx3wx--3- 804.5 0.6---wx-w1--
2019-07-19 16:00:00 10.4 5.0 7.3--- 6930.0wxwxwxwx3wx--3- 804.4 0.4---------
2019-07-19 15:00:00 12.5 4.9 8.3--- 6040.0wxwxwxwxwx4wx--4- 804.1 0.1---------
2019-07-19 14:00:00 12.5 5.6 8.6--- 6340.0wxwxwxwxwx5wx--5- 803.9 -0.2---------
2019-07-19 13:00:00 11.9 4.8 7.9--- 6240.0wxwxwx4wx--4- 804.0 0.1---------
2019-07-19 12:00:00 12.7 2.8 7.5--- 5140.0wxwxwxwxwx2wx--2- 804.0 0.4- 0.06------
2019-07-19 11:00:00 11.4 5.7 8.1--- 6840.0wxwxwx1wx--1- 804.1 0.7---------
2019-07-19 10:00:00 11.0 5.1 7.6--- 6740.0wxwxwx1wx--1- 803.9 0.7---------
2019-07-19 09:00:00 10.4 6.0 7.7--- 7440.0wxwxwxwx3wx--3- 803.6 0.6---------
2019-07-19 08:00:00 10.0 5.4 7.3--- 7340.0wxwxwx1wx--1- 803.4 0.7---------
2019-07-19 07:00:00 8.9 4.3 6.2--- 7340.0wxwxwxwx2wx--2- 803.2 0.7---------
2019-07-19 06:00:00 8.6 4.0 5.9 8.7 6.4- 7350.0wxwxwxwx2wx--2- 803.0 0.6- 0.012----- 1.7
2019-07-19 05:00:00 7.8 3.1 5.1--- 7250.0wxwxwxwx2wx--2- 802.7 0.3---------
2019-07-19 04:00:00 6.9 4.0 5.1--- 8250.0wxwxwxwx4wx--4- 802.5 0.2---------
2019-07-19 03:00:00 6.7 4.0 5.0--- 8350.0wxwxwxwx4wx--4- 802.4 0.2---------
2019-07-19 02:00:00 6.8 3.6 4.9--- 8050.0wxwxwxwx5wx--5- 802.4 0.3---------
2019-07-19 01:00:00 6.7 3.3 4.7--- 7950.0wxwxwx4wx--4- 802.3 0.3---------
2019-07-19 00:00:00 6.7 2.8 4.4--- 7650.0wxwxwxwx5wx--5- 802.2 0.4- 0.06------
4.1 ms

 

Print Friendly, PDF & Email